October 28, 2021
Temp
 
92.2 °F
 
Dew Pt.
 
47.8 °F
 
Humidity
 
22%
 
Pressure
 
1014.0 hPa 
  falling rapidly
Wind
 
2.0 mph 
    W
Rain
 
0.00 in 
  0.00 in/hr
UV index
 
---  
 
Solar rad.
 
100 W/m²
 
This
Afternoon
This Afternoon: Sunny, with a high near 88. East northeast wind around 5 mph.
Sunny

Tonight

Tonight: Mostly clear, with a low around 63. Calm wind becoming north around 5 mph after midnight.
Mostly Clear

Hi 88 °F Lo 63 °F
MAP MAG LOCAL DATETIME
y/m/d h:m:s
LAT
deg
LON
deg
DEPTH
km
LOCATION
map0.92021/10/28 14:15:0938.162N117.809W13.5 52 km (32 mi) WNW of Tonopah, NV
map1.32021/10/28 13:49:1633.023N115.814W7.22 18 km (11 mi) W of Westmorland, CA
map0.92021/10/28 13:35:3638.799N122.803W6.46 5 km ( 3 mi) WNW of The Geysers, CA
map1.62021/10/28 13:35:2839.048N118.383W1.7 58 km (36 mi) SE of Fallon, NV
map0.72021/10/28 13:30:1638.833N122.818W2.1 8 km ( 5 mi) NW of The Geysers, CA
map0.72021/10/28 13:24:5637.400N118.969W5.82 26 km (16 mi) S of Mammoth Lakes, CA
map1.32021/10/28 13:21:1638.838N122.836W1.43 10 km ( 6 mi) NW of The Geysers, CA
map0.42021/10/28 13:00:4533.589N116.602W13.81 8 km ( 5 mi) ENE of Anza, CA
map1.12021/10/28 12:10:1238.359N119.824W0.0 47 km (29 mi) ENE of Arnold, CA
map0.52021/10/28 11:49:1933.518N116.737W2.6 7 km ( 4 mi) SW of Anza, CA
map1.02021/10/28 11:28:5338.842N122.878W2.63 13 km ( 8 mi) ENE of Cloverdale, CA
map1.42021/10/28 11:07:4733.059N114.997W-0.25 0 km ( 0 mi) ESE of Quarry at RUN (Probable quarry explosion)
map1.12021/10/28 10:50:3235.064N118.320W6.06 13 km ( 8 mi) W of Mojave, CA
map1.12021/10/28 10:29:2236.996N116.760W0.3 10 km ( 6 mi) N of Beatty, NV
map1.52021/10/28 10:01:0033.846N117.478W-0.5 2 km ( 1 mi) ESE of Quarry at CORONA (Probable quarry explosion)
map1.42021/10/28 10:00:2738.831N122.830W3.69 9 km ( 5 mi) NW of The Geysers, CA
map1.42021/10/28 09:39:4838.782N122.735W1.9 2 km ( 1 mi) ENE of The Geysers, CA
map1.02021/10/28 09:22:1833.968N117.069W17.54 3 km ( 2 mi) SSW of Calimesa, CA
map0.82021/10/28 09:22:1433.970N117.076W17.86 3 km ( 2 mi) SW of Calimesa, CA
map1.12021/10/28 09:07:5338.819N122.804W2.33 6 km ( 4 mi) NW of The Geysers, CA
map2.62021/10/28 08:39:5741.079N125.739W10135 km (84 mi) WNW of Bayview, CA
map0.52021/10/28 08:21:1635.977N117.686W3.54 20 km (13 mi) ENE of Little Lake, CA
map1.92021/10/28 08:02:1837.808N114.285W7.2 29 km (18 mi) NE of Caliente, NV
map1.72021/10/28 07:20:4038.568N119.452W2.85 26 km (16 mi) SSW of Smith Valley, NV
map0.92021/10/28 07:16:0038.787N122.747W1.36 1 km ( 1 mi) NE of The Geysers, CA
map0.72021/10/28 07:13:4738.163N117.894W10.2 59 km (37 mi) W of Tonopah, NV
map1.22021/10/28 07:09:0038.805N122.774W1.28 3 km ( 2 mi) NNW of The Geysers, CA
map0.92021/10/28 07:00:1438.833N122.819W1.76 8 km ( 5 mi) NW of The Geysers, CA
map0.92021/10/28 06:57:5138.834N122.819W1.55 8 km ( 5 mi) NW of The Geysers, CA
map0.62021/10/28 06:23:0238.166N117.967W3.3 65 km (41 mi) W of Tonopah, NV
map0.02021/10/28 06:22:4138.515N119.533W5.6 34 km (21 mi) SSW of Smith Valley, NV
map0.12021/10/28 06:01:4939.408N120.194W11.4 9 km ( 6 mi) N of Truckee, CA
map0.72021/10/28 05:45:3133.679N116.764W15.88 8 km ( 5 mi) SSW of Idyllwild, CA
map0.92021/10/28 05:31:2638.847N122.818W1.06 9 km ( 5 mi) WNW of Cobb, CA
map1.52021/10/28 05:08:1533.996N116.923W20.45 9 km ( 6 mi) NE of Beaumont, CA
map1.12021/10/28 05:00:2735.882N117.694W8.14 20 km (12 mi) ESE of Little Lake, CA
map0.42021/10/28 04:50:4438.781N122.743W-0.85 1 km ( 1 mi) ENE of The Geysers, CA
map0.92021/10/28 04:42:5438.199N117.888W8.8 59 km (37 mi) WNW of Tonopah, NV
map0.92021/10/28 04:25:3638.496N119.535W9.1 36 km (22 mi) SSW of Smith Valley, NV
map1.52021/10/28 04:15:0938.557N119.504W6.3 29 km (18 mi) SSW of Smith Valley, NV
map0.62021/10/28 04:09:5338.825N122.813W2.15 7 km ( 4 mi) NW of The Geysers, CA
map0.72021/10/28 04:07:3735.890N117.705W8.49 19 km (12 mi) ESE of Little Lake, CA
map0.32021/10/28 02:37:4639.409N120.201W10.5 9 km ( 6 mi) N of Truckee, CA
map0.72021/10/28 02:29:4935.880N117.689W8.87 21 km (13 mi) ESE of Little Lake, CA
map0.52021/10/28 02:12:3638.148N117.891W8.8 58 km (36 mi) W of Tonopah, NV
map0.72021/10/28 02:12:2738.787N122.765W1.55 1 km ( 1 mi) NW of The Geysers, CA
map0.82021/10/28 01:48:5835.760N117.533W6.8 12 km ( 7 mi) W of Searles Valley, CA
map1.02021/10/28 01:46:4734.018N117.142W18.23 6 km ( 4 mi) SE of Redlands, CA
map1.42021/10/28 01:44:3438.184N117.886W8.0 59 km (37 mi) WNW of Tonopah, NV
map0.52021/10/28 01:24:0335.912N117.679W8.08 21 km (13 mi) E of Little Lake, CA
map0.72021/10/28 01:14:0737.606N118.834W3.17 13 km ( 8 mi) ESE of Mammoth Lakes, CA
map2.12021/10/28 01:10:3136.205N119.789W16.92 11 km ( 7 mi) S of Lemoore, CA
map0.82021/10/28 00:58:4335.883N117.690W9.23 20 km (13 mi) ESE of Little Lake, CA
map1.22021/10/28 00:57:2438.792N122.806W3.1 5 km ( 3 mi) WNW of The Geysers, CA
map0.52021/10/28 00:56:2338.182N117.893W10.1 59 km (37 mi) WNW of Tonopah, NV
map1.22021/10/28 00:54:1238.792N122.806W2.99 5 km ( 3 mi) WNW of The Geysers, CA
map0.42021/10/28 00:51:3539.679N119.642W10.4 7 km ( 4 mi) ENE of Spanish Springs, NV
map0.22021/10/28 00:40:0037.602N119.004W0.38 4 km ( 3 mi) SSW of Mammoth Lakes, CA
map0.92021/10/28 00:37:4338.183N117.764W16.0 48 km (30 mi) WNW of Tonopah, NV
map1.12021/10/27 23:51:4538.509N119.505W8.2 34 km (21 mi) SSW of Smith Valley, NV
map1.32021/10/27 23:49:3938.563N119.462W6.0 27 km (17 mi) SSW of Smith Valley, NV
map1.22021/10/27 23:47:4139.822N117.497W5.9 52 km (32 mi) NW of Austin, NV
map0.92021/10/27 23:31:5137.996N122.251W8.71 4 km ( 2 mi) SE of Hercules, CA
map1.32021/10/27 23:27:3037.591N121.692W14.01 12 km ( 8 mi) SSE of Livermore, CA
map1.52021/10/27 23:08:5334.996N119.128W0.44 17 km (10 mi) N of Pine Mountain Club, CA
map0.92021/10/27 23:04:2938.179N117.774W10.1 49 km (31 mi) WNW of Tonopah, NV
map1.02021/10/27 22:58:2835.902N117.745W7.56 15 km ( 9 mi) ESE of Little Lake, CA
map1.02021/10/27 22:52:1838.840N122.880W2.35 13 km ( 8 mi) ENE of Cloverdale, CA
map0.72021/10/27 22:35:1637.594N118.760W7.57 20 km (12 mi) ESE of Mammoth Lakes, CA
map0.92021/10/27 22:31:4338.830N122.812W9.56 8 km ( 5 mi) NW of The Geysers, CA
map1.42021/10/27 22:16:4038.566N119.458W3.82 26 km (16 mi) SSW of Smith Valley, NV
map2.12021/10/27 22:13:0540.335N121.223W8.08 3 km ( 2 mi) NNE of Chester, CA
map1.02021/10/27 22:11:2538.787N122.744W1.62 2 km ( 1 mi) NE of The Geysers, CA
map0.62021/10/27 22:02:4933.395N116.936W17.17 8 km ( 5 mi) WNW of Palomar Observatory, CA
map1.22021/10/27 21:49:4538.495N119.515W4.2 35 km (22 mi) SSW of Smith Valley, NV
map1.72021/10/27 21:47:3838.170N117.827W7.8 53 km (33 mi) WNW of Tonopah, NV
map1.82021/10/27 20:29:3135.787N121.293W4.29 31 km (19 mi) NW of Cambria, CA
map1.12021/10/27 20:27:5738.167N117.982W1.9 67 km (41 mi) W of Tonopah, NV
map1.42021/10/27 20:23:5839.295N123.348W2.71 13 km ( 8 mi) S of Willits, CA
map1.82021/10/27 20:17:3240.584N123.950W19.83 13 km ( 8 mi) ENE of Hydesville, CA
map0.72021/10/27 20:13:4633.849N116.649W16.43 11 km ( 7 mi) WSW of Garnet, CA
map0.42021/10/27 19:51:0838.160N117.906W12.4 60 km (37 mi) W of Tonopah, NV
map2.62021/10/27 19:45:3238.647N119.724W-1.14 27 km (17 mi) S of Gardnerville Ranchos, NV
map1.02021/10/27 19:40:5738.156N117.892W8.3 59 km (36 mi) W of Tonopah, NV
map0.52021/10/27 19:23:5838.751N122.718W1.8 4 km ( 3 mi) SE of The Geysers, CA
map0.62021/10/27 19:23:4533.959N116.859W8.65 4 km ( 2 mi) NNE of Banning, CA
map1.12021/10/27 19:21:2238.750N122.719W1.42 4 km ( 3 mi) SE of The Geysers, CA
map0.62021/10/27 19:10:2638.794N122.729W0.81 3 km ( 2 mi) NE of The Geysers, CA
map0.92021/10/27 18:30:0338.840N122.823W1.66 9 km ( 6 mi) WNW of Cobb, CA
map0.92021/10/27 18:22:2138.833N122.818W1.65 8 km ( 5 mi) NW of The Geysers, CA
map1.52021/10/27 18:02:3738.194N117.749W12.4 47 km (29 mi) WNW of Tonopah, NV
map1.12021/10/27 17:26:4135.443N118.281W7.3 25 km (16 mi) SE of Bodfish, CA
map1.22021/10/27 16:44:2938.565N119.446W5.3 26 km (16 mi) SSW of Smith Valley, NV
map1.62021/10/27 16:35:3235.030N117.672W-0.8 1 km ( 0 mi) E of Quarry at BORON (Probable quarry explosion)
map0.62021/10/27 16:34:1238.840N122.826W1.43 9 km ( 6 mi) WNW of Cobb, CA
map1.42021/10/27 16:23:5138.555N119.505W5.3 29 km (18 mi) SSW of Smith Valley, NV
map1.02021/10/27 16:22:4034.302N117.492W14.29 5 km ( 3 mi) N of Lytle Creek, CA
map0.72021/10/27 15:35:0136.024N120.583W3.6 20 km (12 mi) NW of Parkfield, CA
map1.22021/10/27 15:31:5338.830N122.814W1.87 8 km ( 5 mi) NW of The Geysers, CA
map0.52021/10/27 15:20:5235.948N117.683W3.42 20 km (13 mi) E of Little Lake, CA
map0.42021/10/27 15:05:3638.847N122.835W-0.39 10 km ( 6 mi) WNW of Cobb, CA
map1.42021/10/27 14:52:0338.133N117.983W10.4 66 km (41 mi) W of Tonopah, NV
map1.42021/10/27 14:51:0638.136N117.987W10.5 67 km (41 mi) W of Tonopah, NV
map0.22021/10/27 14:23:2339.334N120.141W10.5 4 km ( 2 mi) E of Truckee, CA
map0.82021/10/27 13:57:1237.689N118.805W2.61 16 km (10 mi) ENE of Mammoth Lakes, CA
map0.82021/10/27 13:52:1337.663N118.828W3.39 14 km ( 8 mi) ENE of Mammoth Lakes, CA
map0.42021/10/27 13:14:2638.842N122.877W2.29 13 km ( 8 mi) NW of The Geysers, CA
map1.42021/10/27 13:06:1637.419N121.764W4.55 6 km ( 4 mi) NE of East Foothills, CA
map1.62021/10/27 13:04:1438.789N122.762W1.18 1 km ( 1 mi) NNW of The Geysers, CA
map0.82021/10/27 12:55:0436.010N117.808W1.67 12 km ( 8 mi) NE of Little Lake, CA
map0.72021/10/27 12:46:0135.861N117.686W6.89 22 km (13 mi) ESE of Little Lake, CA
map1.52021/10/27 12:36:3638.115N122.173W-0.07 19 km (12 mi) SSE of Quarry near Sears Point, CA(Probable quarry explosion)
map0.52021/10/27 12:23:1537.667N118.820W3.56 14 km ( 9 mi) ENE of Mammoth Lakes, CA
map0.52021/10/27 12:08:3737.696N118.806W1.75 17 km (10 mi) ENE of Mammoth Lakes, CA
map2.02021/10/27 11:48:0736.591N121.189W7.61 22 km (14 mi) NE of Soledad, CA
map0.42021/10/27 11:29:2238.840N122.879W2.42 13 km ( 8 mi) ENE of Cloverdale, CA
map0.62021/10/27 11:22:4833.672N116.743W13.67 8 km ( 5 mi) SSW of Idyllwild, CA
map1.52021/10/27 11:06:2933.063N114.999W-0.25 0 km ( 0 mi) NNE of Quarry at RUN (Probable quarry explosion)
map0.42021/10/27 11:05:1338.515N119.532W5.34 34 km (21 mi) SSW of Smith Valley, NV
map0.82021/10/27 10:54:2338.177N117.882W9.0 58 km (36 mi) WNW of Tonopah, NV
map1.22021/10/27 10:50:4138.171N117.983W1.8 67 km (42 mi) W of Tonopah, NV
map1.32021/10/27 10:35:4337.666N118.822W3.53 14 km ( 9 mi) ENE of Mammoth Lakes, CA
map0.92021/10/27 10:17:4333.993N116.765W15.02 9 km ( 5 mi) NNE of Cabazon, CA
map0.62021/10/27 10:02:1338.823N122.811W1.06 7 km ( 4 mi) NW of The Geysers, CA
map-0.32021/10/27 10:02:0135.880N117.691W3.89 20 km (13 mi) ESE of Little Lake, CA
map1.12021/10/27 09:35:4534.039N116.821W12.57 14 km ( 8 mi) NNE of Banning, CA
map0.92021/10/27 09:22:2737.670N118.822W2.79 14 km ( 9 mi) ENE of Mammoth Lakes, CA
map2.92021/10/27 09:19:2738.513N119.534W5.69 34 km (21 mi) SSW of Smith Valley, NV
map0.42021/10/27 09:15:2533.631N116.698W13.39 9 km ( 5 mi) NNW of Anza, CA
map0.82021/10/27 09:00:1438.825N122.803W2.61 7 km ( 4 mi) NW of The Geysers, CA
map0.82021/10/27 08:38:0835.680N117.555W10.23 13 km ( 8 mi) ENE of Ridgecrest, CA
map0.82021/10/27 07:35:3333.559N116.663W10.22 1 km ( 1 mi) ENE of Anza, CA
map0.62021/10/27 07:29:1838.821N122.796W3.01 6 km ( 4 mi) NW of The Geysers, CA
map0.42021/10/27 06:31:4233.597N116.605W15.21 8 km ( 5 mi) NE of Anza, CA
map0.42021/10/27 06:15:5038.833N122.808W2 7 km ( 5 mi) W of Cobb, CA
map1.02021/10/27 06:12:2136.087N117.902W4.28 6 km ( 4 mi) NE of Coso Junction, CA
map0.32021/10/27 06:07:1137.665N118.825W2.59 14 km ( 9 mi) ENE of Mammoth Lakes, CA
map1.22021/10/27 05:42:0735.214N118.674W6.22 14 km ( 9 mi) E of Arvin, CA
map2.12021/10/27 05:31:3036.678N121.310W4.29 16 km (10 mi) SSE of Ridgemark, CA
map0.42021/10/27 05:26:2233.629N116.744W14.6 10 km ( 7 mi) NW of Anza, CA
map1.42021/10/27 05:20:2736.589N121.185W6.75 22 km (14 mi) NE of Soledad, CA
map2.22021/10/27 05:16:1339.829N120.752W-1.63 17 km (11 mi) SE of East Quincy, CA
map1.92021/10/27 05:06:3135.795N121.281W3.96 31 km (20 mi) NW of Cambria, CA
map0.62021/10/27 04:58:4738.823N122.856W2.03 10 km ( 6 mi) WNW of The Geysers, CA
map0.52021/10/27 04:51:3533.821N116.583W16.31 5 km ( 3 mi) W of Palm Springs, CA
map1.82021/10/27 04:46:1138.533N119.507W10.15 31 km (19 mi) SSW of Smith Valley, NV
map0.92021/10/27 04:43:5633.819N116.585W16.33 5 km ( 3 mi) W of Palm Springs, CA
map0.92021/10/27 04:16:3938.836N122.787W1.73 6 km ( 4 mi) WNW of Cobb, CA
map0.92021/10/27 03:58:4938.831N122.820W2.2 8 km ( 5 mi) NW of The Geysers, CA
map2.02021/10/27 03:55:2938.108N118.951W2.54 52 km (33 mi) N of Mammoth Lakes, CA
map0.52021/10/27 03:53:4238.536N119.481W7.9 30 km (19 mi) SSW of Smith Valley, NV
map1.92021/10/27 03:41:4836.697N121.352W3.99 13 km ( 8 mi) S of Ridgemark, CA
map1.52021/10/27 03:13:2738.830N122.818W1.92 8 km ( 5 mi) NW of The Geysers, CA
map0.92021/10/27 03:12:0438.842N122.878W2.22 13 km ( 8 mi) ENE of Cloverdale, CA
map0.92021/10/27 03:10:4338.832N122.818W1.37 8 km ( 5 mi) NW of The Geysers, CA
map1.62021/10/27 03:07:4738.831N122.816W1.83 8 km ( 5 mi) NW of The Geysers, CA
map0.52021/10/27 03:05:5436.039N117.774W1.93 16 km (10 mi) E of Coso Junction, CA
map1.62021/10/27 03:05:1338.424N118.916W9.4 28 km (17 mi) WSW of Hawthorne, NV
map0.82021/10/27 03:00:3138.550N119.530W6.0 31 km (19 mi) SSW of Smith Valley, NV
map1.12021/10/27 02:59:5938.549N119.527W6.0 31 km (19 mi) SSW of Smith Valley, NV
map1.22021/10/27 02:50:4938.837N122.812W6.77 8 km ( 5 mi) WNW of Cobb, CA
map0.72021/10/27 02:45:2236.038N117.772W1.79 16 km (10 mi) E of Coso Junction, CA
map1.22021/10/27 02:37:0339.328N120.150W11.8 3 km ( 2 mi) E of Truckee, CA
map0.62021/10/27 02:32:5738.827N122.855W2.55 10 km ( 6 mi) WNW of The Geysers, CA
map0.52021/10/27 02:08:2738.194N117.748W11.7 47 km (29 mi) WNW of Tonopah, NV
map2.12021/10/27 02:03:3538.196N117.744W12.8 47 km (29 mi) WNW of Tonopah, NV
map1.52021/10/27 02:02:0438.193N117.750W12.0 47 km (30 mi) WNW of Tonopah, NV
map1.52021/10/27 01:43:1038.045N118.609W13.1 53 km (33 mi) S of Hawthorne, NV
map1.02021/10/27 01:22:1537.526N119.388W15.26 29 km (18 mi) SE of Yosemite Valley, CA
map0.92021/10/27 00:51:3933.651N116.714W15.78 10 km ( 6 mi) S of Idyllwild, CA
map1.22021/10/26 23:50:4838.823N122.786W0.6 5 km ( 3 mi) W of Cobb, CA
map0.52021/10/26 23:41:1338.163N117.843W9.5 55 km (34 mi) W of Tonopah, NV
map1.02021/10/26 23:40:3037.700N122.006W5.23 4 km ( 3 mi) NE of Fairview, CA
map1.42021/10/26 23:37:5133.685N116.791W14.17 9 km ( 6 mi) SW of Idyllwild, CA
map0.72021/10/26 23:22:3638.826N122.877W2.73 12 km ( 7 mi) WNW of The Geysers, CA
map1.82021/10/26 23:03:3838.109N118.958W2.63 53 km (33 mi) N of Mammoth Lakes, CA
map2.22021/10/26 22:57:5638.536N119.523W4.51 32 km (20 mi) SSW of Smith Valley, NV
map0.72021/10/26 22:53:2038.467N119.580W0.64 41 km (25 mi) SSW of Smith Valley, NV
map1.22021/10/26 22:53:1535.863N117.670W9.94 23 km (14 mi) ESE of Little Lake, CA
map0.32021/10/26 22:52:5138.488N119.536W-0.84 37 km (23 mi) SSW of Smith Valley, NV
map1.52021/10/26 22:19:2135.899N117.682W4.33 21 km (13 mi) ESE of Little Lake, CA
map1.02021/10/26 22:16:0738.189N117.751W12.5 47 km (29 mi) WNW of Tonopah, NV
map0.52021/10/26 22:08:1338.539N119.532W5.0 32 km (20 mi) SSW of Smith Valley, NV
map0.62021/10/26 22:07:4138.788N122.767W1.68 1 km ( 1 mi) NW of The Geysers, CA
map0.92021/10/26 21:13:5838.788N122.761W1.61 1 km ( 1 mi) NNW of The Geysers, CA
map0.92021/10/26 21:11:2238.795N122.775W3.1 3 km ( 2 mi) NW of The Geysers, CA
map1.02021/10/26 20:24:5538.842N122.877W2.56 13 km ( 8 mi) NW of The Geysers, CA
map0.42021/10/26 20:17:3338.816N122.786W0.9 5 km ( 3 mi) NNW of The Geysers, CA
map0.82021/10/26 20:16:3238.553N119.425W6.2 27 km (17 mi) SSW of Smith Valley, NV
map1.72021/10/26 19:29:3133.952N116.731W16.16 6 km ( 4 mi) NE of Cabazon, CA
map0.82021/10/26 19:19:0238.154N117.901W7.8 59 km (37 mi) W of Tonopah, NV
map1.32021/10/26 19:15:5834.241N117.478W6.02 3 km ( 2 mi) SE of Lytle Creek, CA
map1.52021/10/26 19:13:2638.147N117.884W9.8 58 km (36 mi) W of Tonopah, NV
map0.92021/10/26 18:48:2938.839N122.810W1.88 8 km ( 5 mi) WNW of Cobb, CA
map0.62021/10/26 18:33:0338.823N122.811W1.17 7 km ( 4 mi) NW of The Geysers, CA
map2.12021/10/26 18:31:3738.823N122.809W1.05 7 km ( 4 mi) NW of The Geysers, CA
map2.52021/10/26 18:31:2738.822N122.809W0.81 7 km ( 4 mi) NW of The Geysers, CA
map1.02021/10/26 18:16:2334.187N116.733W1 13 km ( 8 mi) SE of Big Bear City, CA
map0.62021/10/26 17:55:1233.517N116.563W3.08 11 km ( 7 mi) ESE of Anza, CA
map1.22021/10/26 17:45:0238.826N122.800W1.26 7 km ( 4 mi) NW of The Geysers, CA
map0.72021/10/26 17:34:4436.076N117.854W4.11 9 km ( 6 mi) ENE of Coso Junction, CA
map1.42021/10/26 17:26:2238.156N118.948W2.1 50 km (31 mi) SW of Hawthorne, NV
map1.52021/10/26 16:55:0637.238N116.565W6.1 40 km (25 mi) NNE of Beatty, NV
map1.62021/10/26 16:35:3135.032N117.683W-0.82 0 km ( 0 mi) WNW of Quarry at BORON (Probable quarry explosion)
map0.32021/10/26 16:26:3338.783N122.764W1.59 1 km ( 1 mi) NW of The Geysers, CA
map0.92021/10/26 16:26:2238.779N122.766W1.16 1 km ( 1 mi) WNW of The Geysers, CA
map0.82021/10/26 16:24:3238.157N117.912W9.7 60 km (38 mi) W of Tonopah, NV
map0.72021/10/26 16:13:3138.167N117.887W8.7 58 km (36 mi) W of Tonopah, NV
map1.62021/10/26 15:57:1738.841N122.775W0.86 5 km ( 3 mi) WNW of Cobb, CA
map0.72021/10/26 15:33:3638.826N122.805W2.38 7 km ( 4 mi) NW of The Geysers, CA
map0.32021/10/26 14:36:5237.602N118.836W3.05 13 km ( 8 mi) ESE of Mammoth Lakes, CA
map1.12021/10/26 14:36:4436.177N118.006W3.99 12 km ( 7 mi) S of Olancha, CA
map0.22021/10/26 14:27:3637.602N119.004W0.41 4 km ( 3 mi) SSW of Mammoth Lakes, CA
map1.12021/10/26 14:16:5838.544N119.528W4.45 31 km (19 mi) SSW of Smith Valley, NV
map1.72021/10/26 14:10:0433.674N117.403W7.53 7 km ( 4 mi) NW of Lakeland Village, CA
map2.22021/10/26 14:04:2938.529N119.522W6.17 32 km (20 mi) SSW of Smith Valley, NV
map2.62021/10/26 13:55:5334.020N118.965W15.38 14 km ( 9 mi) W of Malibu, CA
map1.92021/10/26 13:45:4039.305N122.802W0.59 18 km (11 mi) NNE of Upper Lake, CA
map0.42021/10/26 13:41:1138.841N122.878W2.22 13 km ( 8 mi) ENE of Cloverdale, CA
map1.62021/10/26 13:28:1938.544N119.532W4.39 31 km (19 mi) SSW of Smith Valley, NV
map0.82021/10/26 13:27:3538.842N122.879W2.35 13 km ( 8 mi) ENE of Cloverdale, CA
map1.02021/10/26 13:26:2935.688N117.467W4.97 11 km ( 7 mi) SSW of Searles Valley, CA
map1.32021/10/26 13:06:5432.656N115.892W9.86 13 km ( 8 mi) SE of Ocotillo, CA
map1.22021/10/26 13:06:4338.840N122.880W2.26 13 km ( 8 mi) ENE of Cloverdale, CA
map2.72021/10/26 12:47:0835.941N117.320W1.61 20 km (13 mi) NNE of Trona, CA
map0.92021/10/26 12:36:3038.789N122.768W1.61 2 km ( 1 mi) NW of The Geysers, CA
map1.32021/10/26 12:19:3434.055N116.961W16.31 8 km ( 5 mi) ENE of Yucaipa, CA
map2.02021/10/26 12:16:0434.586N116.271W2.7 18 km (11 mi) SW of Ludlow, CA
map1.82021/10/26 12:13:4534.187N116.737W1.08 13 km ( 8 mi) SE of Big Bear City, CA
map0.72021/10/26 12:12:3033.345N116.806W10.5 6 km ( 3 mi) ESE of Palomar Observatory, CA
map0.92021/10/26 12:07:5038.189N117.727W10.9 45 km (28 mi) WNW of Tonopah, NV
map0.82021/10/26 11:41:1938.045N118.062W12.3 72 km (45 mi) SE of Hawthorne, NV
map2.12021/10/26 11:40:2738.741N122.702W2.15 6 km ( 4 mi) SE of The Geysers, CA
MAP3.02021/10/26 11:38:5138.762N122.709W0.79 4 km ( 3 mi) ESE of The Geysers, CA
map1.52021/10/26 11:28:5035.647N117.451W8.08 14 km ( 9 mi) SSW of Searles Valley, CA
map2.42021/10/26 11:24:0733.771N116.120W5.45 10 km ( 7 mi) ENE of Indio, CA
map0.62021/10/26 10:58:4635.953N117.658W2.39 22 km (14 mi) E of Little Lake, CA
map1.32021/10/26 10:41:1638.539N119.456W3.13 29 km (18 mi) SSW of Smith Valley, NV
map0.52021/10/26 10:37:0938.163N117.949W6.2 64 km (40 mi) W of Tonopah, NV
map1.02021/10/26 09:59:0338.842N122.877W2.11 13 km ( 8 mi) NW of The Geysers, CA
map1.72021/10/26 09:58:3437.373N117.127W7.5 61 km (38 mi) NNW of Beatty, NV
map0.32021/10/26 09:53:1137.602N118.837W2.87 13 km ( 8 mi) ESE of Mammoth Lakes, CA
map1.42021/10/26 09:52:0134.188N116.736W1.29 13 km ( 8 mi) SE of Big Bear City, CA
map0.62021/10/26 09:38:2738.787N122.761W1.39 1 km ( 1 mi) NNW of The Geysers, CA
map0.62021/10/26 09:34:4638.640N118.808W14.9 20 km (13 mi) NW of Hawthorne, NV
map0.52021/10/26 09:27:2638.788N122.761W1.74 1 km ( 1 mi) NNW of The Geysers, CA
map0.82021/10/26 09:18:0635.848N117.681W7.28 23 km (14 mi) ESE of Little Lake, CA
map1.22021/10/26 08:03:5738.832N122.815W1.75 8 km ( 5 mi) NW of The Geysers, CA
map1.32021/10/26 07:48:4138.833N122.815W1.67 8 km ( 5 mi) NW of The Geysers, CA
map0.92021/10/26 07:38:3638.783N122.741W0.58 1 km ( 1 mi) ENE of The Geysers, CA
map1.82021/10/26 07:37:1838.116N118.948W0.2 53 km (33 mi) N of Mammoth Lakes, CA
map2.02021/10/26 07:37:0139.658N123.617W3.73 12 km ( 7 mi) WSW of Laytonville, CA
map0.62021/10/26 07:32:0438.527N119.504W6.76 32 km (20 mi) SSW of Smith Valley, NV
map0.82021/10/26 07:17:3138.541N119.532W3.6 32 km (20 mi) SSW of Smith Valley, NV
map0.82021/10/26 07:16:4638.549N119.523W5.5 30 km (19 mi) SSW of Smith Valley, NV
map1.62021/10/26 07:13:3538.543N119.533W4.35 31 km (20 mi) SSW of Smith Valley, NV
map1.52021/10/26 07:00:1934.031N117.027W7.56 1 km ( 1 mi) E of Yucaipa, CA
map0.42021/10/26 06:49:5538.818N122.822W2.92 7 km ( 5 mi) NW of The Geysers, CA
map0.82021/10/26 06:45:5038.816N122.823W2.92 7 km ( 4 mi) NW of The Geysers, CA
map1.32021/10/26 06:31:0938.816N122.821W2.53 7 km ( 4 mi) NW of The Geysers, CA
map1.62021/10/26 06:25:3838.453N119.488W4.97 39 km (24 mi) SSW of Smith Valley, NV
map1.52021/10/26 06:21:1838.456N119.476W5.62 38 km (24 mi) SSW of Smith Valley, NV
map0.92021/10/26 06:13:3438.827N122.808W1.73 7 km ( 4 mi) NW of The Geysers, CA
map0.92021/10/26 06:10:1338.826N122.784W1.81 5 km ( 3 mi) W of Cobb, CA
map1.32021/10/26 05:57:5338.546N119.534W4.6 31 km (19 mi) SSW of Smith Valley, NV
map1.52021/10/26 05:53:5537.392N118.967W2.65 27 km (17 mi) S of Mammoth Lakes, CA
map0.32021/10/26 05:48:1038.840N122.879W2.37 13 km ( 8 mi) ENE of Cloverdale, CA
map1.32021/10/26 05:41:5438.150N118.250W8.3 53 km (33 mi) SE of Hawthorne, NV
map0.62021/10/26 05:06:5538.804N122.779W1.45 4 km ( 2 mi) NW of The Geysers, CA
map1.02021/10/26 04:55:5737.455N118.639W10.57 19 km (12 mi) WNW of West Bishop, CA
map2.12021/10/26 04:51:2438.545N119.533W4.37 31 km (19 mi) SSW of Smith Valley, NV
map1.32021/10/26 04:46:1938.544N119.531W4.32 31 km (19 mi) SSW of Smith Valley, NV
map0.62021/10/26 04:32:5737.593N118.754W8.89 20 km (13 mi) ESE of Mammoth Lakes, CA
map2.72021/10/26 04:29:2038.545N119.530W4.33 31 km (19 mi) SSW of Smith Valley, NV
map1.02021/10/26 03:57:1436.013N117.983W3.31 5 km ( 3 mi) SW of Coso Junction, CA
map0.72021/10/26 03:22:0238.838N122.837W1.43 10 km ( 6 mi) NW of The Geysers, CA
map0.72021/10/26 03:21:5238.838N122.838W1.71 10 km ( 6 mi) NW of The Geysers, CA
map1.72021/10/26 02:22:4938.623N119.310W8.4 18 km (11 mi) S of Smith Valley, NV
map0.92021/10/26 02:05:5738.829N122.812W1.92 7 km ( 5 mi) NW of The Geysers, CA
map1.12021/10/26 02:04:4038.200N117.729W11.5 46 km (29 mi) WNW of Tonopah, NV
map0.82021/10/26 01:55:1837.995N122.257W8.98 4 km ( 2 mi) SE of Hercules, CA
map0.72021/10/26 01:53:3136.221N117.864W8.05 14 km ( 9 mi) ESE of Olancha, CA
map0.52021/10/26 01:43:1637.602N118.823W3.96 14 km ( 9 mi) ESE of Mammoth Lakes, CA
map1.22021/10/26 01:42:1035.899N117.681W4.74 21 km (13 mi) ESE of Little Lake, CA
map0.82021/10/26 01:15:3636.022N117.775W2.05 15 km ( 9 mi) NE of Little Lake, CA
map0.62021/10/26 01:08:0437.465N118.820W3.04 24 km (15 mi) SE of Mammoth Lakes, CA
map1.52021/10/26 00:51:0038.751N122.702W1.96 6 km ( 3 mi) ESE of The Geysers, CA
map1.72021/10/26 00:50:3335.946N117.325W1.79 21 km (13 mi) NNE of Trona, CA
map1.32021/10/26 00:47:2536.051N120.616W2.74 24 km (15 mi) NW of Parkfield, CA
map0.52021/10/26 00:32:3337.608N118.818W3.11 15 km ( 9 mi) ESE of Mammoth Lakes, CA
map0.22021/10/26 00:19:3437.605N118.835W2.34 13 km ( 8 mi) ESE of Mammoth Lakes, CA
map2.32021/10/26 00:15:4438.822N122.794W-0.62 6 km ( 4 mi) NNW of The Geysers, CA
map2.52021/10/26 00:08:4134.033N116.979W20.39 6 km ( 4 mi) E of Yucaipa, CA
map2.82021/10/25 23:55:5237.384N121.739W6.21 7 km ( 4 mi) E of East Foothills, CA
map0.92021/10/25 23:03:5334.105N116.683W8.9 11 km ( 7 mi) NW of Morongo Valley, CA
map1.52021/10/25 23:00:2038.761N122.737W1.35 3 km ( 2 mi) SE of The Geysers, CA
map0.72021/10/25 22:10:1538.166N117.970W2.8 66 km (41 mi) W of Tonopah, NV
map2.12021/10/25 21:48:0440.476N121.524W3.57 31 km (19 mi) E of Shingletown, CA
map1.02021/10/25 21:43:4133.966N116.997W16.81 4 km ( 3 mi) NNW of Beaumont, CA
map0.72021/10/25 21:43:3633.976N117.004W18.52 5 km ( 3 mi) ESE of Calimesa, CA
map0.42021/10/25 21:40:2437.604N118.832W3.25 13 km ( 8 mi) ESE of Mammoth Lakes, CA
map2.72021/10/25 21:38:4936.021N117.777W1.81 15 km ( 9 mi) NE of Little Lake, CA
map0.92021/10/25 21:17:0738.798N122.751W1.73 2 km ( 1 mi) N of The Geysers, CA
map1.92021/10/25 20:59:5135.793N121.284W5.49 31 km (19 mi) NW of Cambria, CA
map1.42021/10/25 20:22:0338.842N122.879W2.6 13 km ( 8 mi) ENE of Cloverdale, CA
map0.82021/10/25 20:21:1033.479N116.913W10.65 6 km ( 4 mi) NW of Aguanga, CA
map1.52021/10/25 20:20:2238.840N122.879W2.36 13 km ( 8 mi) ENE of Cloverdale, CA
map0.42021/10/25 20:19:5938.842N122.877W2.35 13 km ( 8 mi) NW of The Geysers, CA
map2.12021/10/25 20:11:4635.788N121.310W4.15 32 km (20 mi) NW of Cambria, CA
map0.82021/10/25 20:04:0937.599N118.827W3.82 14 km ( 9 mi) ESE of Mammoth Lakes, CA
map1.52021/10/25 20:00:5736.578N121.175W2.24 22 km (14 mi) NE of Soledad, CA
map2.02021/10/25 19:39:3238.426N122.629W5.02 7 km ( 4 mi) ESE of Santa Rosa, CA
map2.32021/10/25 19:31:0335.784N121.292W4.51 31 km (19 mi) NW of Cambria, CA
map0.22021/10/25 19:15:2238.794N122.816W3.19 6 km ( 3 mi) WNW of The Geysers, CA
map2.32021/10/25 19:02:4735.779N121.321W4.07 32 km (20 mi) NW of Cambria, CA
map0.42021/10/25 18:59:5938.841N122.877W2.42 13 km ( 8 mi) NW of The Geysers, CA
map1.82021/10/25 18:55:5738.815N122.787W1.34 5 km ( 3 mi) NNW of The Geysers, CA
map1.02021/10/25 18:54:0638.814N122.787W1.45 5 km ( 3 mi) NNW of The Geysers, CA
map1.32021/10/25 18:53:4038.507N119.509W6.52 34 km (21 mi) SSW of Smith Valley, NV
map1.42021/10/25 18:40:2038.137N117.974W11.2 65 km (41 mi) W of Tonopah, NV
map-0.12021/10/25 18:32:0835.636N117.446W7.48 15 km ( 9 mi) SSW of Searles Valley, CA
map2.82021/10/25 18:28:2038.132N117.979W11.2 66 km (41 mi) W of Tonopah, NV
map1.82021/10/25 18:15:3635.776N121.292W4.43 30 km (19 mi) NW of Cambria, CA
map1.72021/10/25 17:49:0237.893N118.551W8.85 47 km (29 mi) NE of Mammoth Lakes, CA
map1.92021/10/25 17:02:5635.791N121.306W4.37 32 km (20 mi) NW of Cambria, CA
MAP3.52021/10/25 16:49:3635.769N121.304W6.46 30 km (19 mi) NW of Cambria, CA
MAP4.72021/10/25 16:42:3535.776N121.304W7.79 31 km (19 mi) NW of Cambria, CA
map1.12021/10/25 16:12:4338.832N122.817W1.37 8 km ( 5 mi) NW of The Geysers, CA
map0.62021/10/25 16:00:0438.815N122.809W1.31 6 km ( 4 mi) NW of The Geysers, CA
map0.82021/10/25 15:54:2538.554N119.511W6.92 29 km (18 mi) SSW of Smith Valley, NV
map0.42021/10/25 15:35:4338.547N119.537W6.4 31 km (19 mi) SSW of Smith Valley, NV
map1.42021/10/25 15:28:0538.547N119.526W4.42 31 km (19 mi) SSW of Smith Valley, NV
map2.22021/10/25 15:25:0938.545N119.531W4.55 31 km (19 mi) SSW of Smith Valley, NV
map2.92021/10/25 15:17:3238.545N119.531W4.18 31 km (19 mi) SSW of Smith Valley, NV
map2.82021/10/25 15:17:1838.544N119.530W4.64 31 km (19 mi) SSW of Smith Valley, NV
map2.22021/10/25 15:07:1934.656N116.289W5.26 14 km ( 9 mi) WSW of Ludlow, CA
map1.22021/10/25 15:02:3837.810N122.197W10.98 3 km ( 2 mi) ENE of Oakland, CA
map1.12021/10/25 15:01:0936.223N117.870W7.87 14 km ( 9 mi) ESE of Olancha, CA
map1.42021/10/25 14:27:4338.500N119.481W3.33 34 km (21 mi) SSW of Smith Valley, NV
map1.22021/10/25 14:23:4538.163N118.152W4.0 58 km (36 mi) SE of Hawthorne, NV
map1.92021/10/25 14:04:4438.800N122.770W3.3 3 km ( 2 mi) NNW of The Geysers, CA
map0.92021/10/25 13:52:0138.838N122.784W1.85 6 km ( 3 mi) WNW of Cobb, CA
map0.72021/10/25 13:38:5433.499N116.778W4.22 10 km ( 6 mi) NE of Aguanga, CA
map0.52021/10/25 13:36:2738.797N122.762W2.24 2 km ( 1 mi) NNW of The Geysers, CA
map0.82021/10/25 13:18:3838.806N122.793W1.42 4 km ( 3 mi) NW of The Geysers, CA
map1.52021/10/25 13:16:3439.257N123.257W5.25 5 km ( 3 mi) WSW of Redwood Valley, CA
map1.12021/10/25 13:10:1238.832N122.820W1.93 8 km ( 5 mi) NW of The Geysers, CA
map1.82021/10/25 12:56:0337.520N118.779W4.91 22 km (14 mi) SE of Mammoth Lakes, CA
map0.22021/10/25 12:52:5838.799N122.749W1.32 2 km ( 2 mi) NNE of The Geysers, CA
map2.12021/10/25 12:50:4036.581N121.176W7.18 22 km (14 mi) NE of Soledad, CA
map1.92021/10/25 12:43:4032.904N115.957W3.23 19 km (12 mi) N of Ocotillo, CA
map1.32021/10/25 12:28:4732.906N116.948W3.63 6 km ( 4 mi) NNW of Lakeside, CA
map1.62021/10/25 12:02:5135.807N117.644W8.48 21 km (13 mi) N of Ridgecrest, CA
map2.22021/10/25 12:00:1634.184N116.737W0.55 13 km ( 8 mi) SE of Big Bear City, CA
map1.42021/10/25 11:58:0834.187N116.739W1.49 13 km ( 8 mi) SE of Big Bear City, CA
map0.92021/10/25 11:10:5638.833N122.817W1.51 8 km ( 5 mi) NW of The Geysers, CA
map0.92021/10/25 10:43:2433.503N116.777W4.18 11 km ( 7 mi) NE of Aguanga, CA
map1.22021/10/25 10:40:3233.135N116.406W11.6 14 km ( 9 mi) SSW of Borrego Springs, CA
map1.12021/10/25 10:35:1533.499N116.781W4.15 10 km ( 6 mi) NE of Aguanga, CA
map0.92021/10/25 10:29:1338.832N122.817W1.69 8 km ( 5 mi) NW of The Geysers, CA
map1.02021/10/25 10:01:1234.335N116.851W-1.41 2 km ( 1 mi) S of Quarry at CUSHENBURY (Probable quarry explosion)
map0.42021/10/25 09:59:1838.806N122.808W0.97 5 km ( 3 mi) NW of The Geysers, CA
map1.42021/10/25 09:55:0935.583N117.397W7.35 20 km (13 mi) S of Trona, CA
map1.02021/10/25 09:41:2438.505N119.531W4.54 35 km (22 mi) SSW of Smith Valley, NV
map0.72021/10/25 09:24:1438.795N122.762W2.22 2 km ( 1 mi) NNW of The Geysers, CA
map2.32021/10/25 09:21:3236.578N121.176W7.31 22 km (13 mi) NE of Soledad, CA
map0.62021/10/25 09:14:3733.883N116.861W15.51 5 km ( 3 mi) SSE of Banning, CA
map0.52021/10/25 09:13:3538.787N122.761W1.73 1 km ( 1 mi) NNW of The Geysers, CA
map1.32021/10/25 09:13:0838.503N119.532W4.36 35 km (22 mi) SSW of Smith Valley, NV
map1.72021/10/25 08:52:5734.186N116.738W1.73 13 km ( 8 mi) SE of Big Bear City, CA
map0.82021/10/25 08:43:2138.540N119.529W5.03 32 km (20 mi) SSW of Smith Valley, NV
map0.82021/10/25 08:41:4138.507N119.515W4.2 34 km (21 mi) SSW of Smith Valley, NV
map1.52021/10/25 08:08:4334.184N116.736W-0.63 13 km ( 8 mi) SE of Big Bear City, CA
map0.92021/10/25 07:39:3738.800N122.820W3.04 6 km ( 4 mi) WNW of The Geysers, CA
map0.52021/10/25 07:33:3538.820N122.814W1.81 7 km ( 4 mi) NW of The Geysers, CA
map1.52021/10/25 06:58:1838.053N118.764W7.31 50 km (31 mi) NNE of Mammoth Lakes, CA
map1.22021/10/25 06:48:0334.105N116.683W8.81 11 km ( 7 mi) NW of Morongo Valley, CA
map1.42021/10/25 06:48:0137.584N118.731W8.94 23 km (14 mi) ESE of Mammoth Lakes, CA
map1.92021/10/25 06:45:3637.264N121.472W5.97 22 km (14 mi) NE of Morgan Hill, CA
map2.22021/10/25 06:31:4037.406N118.528W-0.52 8 km ( 5 mi) NW of West Bishop, CA
map1.72021/10/25 06:29:2236.588N121.181W6.89 22 km (14 mi) NE of Soledad, CA
map0.62021/10/25 06:26:0538.795N122.760W2.52 2 km ( 1 mi) N of The Geysers, CA
map1.82021/10/25 06:05:1535.614N117.575W8.72 9 km ( 6 mi) E of Ridgecrest, CA
map1.02021/10/25 05:51:3438.797N122.750W1.38 2 km ( 1 mi) NNE of The Geysers, CA
map1.12021/10/25 05:48:2034.037N116.809W17.09 13 km ( 8 mi) N of Cabazon, CA
map1.32021/10/25 05:45:3540.177N119.786W5.2 58 km (36 mi) NNE of Cold Springs, NV
map1.22021/10/25 05:03:2738.794N122.760W1.64 2 km ( 1 mi) N of The Geysers, CA
map0.42021/10/25 05:02:4038.795N122.759W2.5 2 km ( 1 mi) N of The Geysers, CA
map2.32021/10/25 05:01:5238.792N122.761W1.93 2 km ( 1 mi) NNW of The Geysers, CA
map1.32021/10/25 04:59:4734.084N118.284W9.54 2 km ( 1 mi) WSW of Silver Lake, CA
map2.22021/10/25 04:47:3538.494N122.724W5.24 3 km ( 2 mi) SE of Larkfield-Wikiup, CA
map1.32021/10/25 04:32:1334.188N116.736W1.55 13 km ( 8 mi) SE of Big Bear City, CA
map2.22021/10/25 04:07:1136.584N121.178W8.66 22 km (14 mi) NE of Soledad, CA
map1.52021/10/25 03:53:2038.189N117.726W9.7 45 km (28 mi) WNW of Tonopah, NV
map1.22021/10/25 03:52:0438.172N117.795W8.2 51 km (31 mi) WNW of Tonopah, NV
map1.32021/10/25 03:43:4833.100N115.589W8.29 8 km ( 5 mi) WSW of Calipatria, CA
map0.52021/10/25 03:06:5038.575N119.435W6.9 25 km (15 mi) SSW of Smith Valley, NV
map1.02021/10/25 03:03:4938.190N117.884W7.7 59 km (36 mi) WNW of Tonopah, NV
map1.12021/10/25 03:02:4338.830N122.812W1.97 8 km ( 5 mi) NW of The Geysers, CA
map0.92021/10/25 02:51:0938.190N117.891W7.4 59 km (37 mi) WNW of Tonopah, NV
map1.22021/10/25 02:35:5238.178N117.749W11.4 47 km (29 mi) WNW of Tonopah, NV
map0.92021/10/25 02:32:5738.832N122.821W2.13 8 km ( 5 mi) NW of The Geysers, CA
map1.82021/10/25 02:31:1638.825N122.798W2.5 6 km ( 4 mi) NW of The Geysers, CA
map1.82021/10/25 02:21:5238.824N122.797W2.64 6 km ( 4 mi) NW of The Geysers, CA
map1.82021/10/25 02:21:1436.102N117.867W2.92 10 km ( 6 mi) NE of Coso Junction, CA
map0.92021/10/25 01:24:4236.083N117.930W5.84 5 km ( 3 mi) NNE of Coso Junction, CA
map1.62021/10/25 01:03:3132.852N115.648W3.74 7 km ( 5 mi) W of Imperial, CA
map1.22021/10/25 00:55:1234.306N118.496W11.74 4 km ( 2 mi) N of Granada Hills, CA
map1.52021/10/25 00:44:2634.187N116.735W0.18 13 km ( 8 mi) SE of Big Bear City, CA
map0.42021/10/25 00:36:1138.820N122.845W2.58 9 km ( 6 mi) WNW of The Geysers, CA
map1.42021/10/25 00:18:3032.900N115.519W3.84 7 km ( 5 mi) NE of Imperial, CA
map0.92021/10/24 23:28:1132.917N116.239W7.44 27 km (17 mi) SSW of Ocotillo Wells, CA
map0.02021/10/24 23:11:5833.897N116.926W1 6 km ( 3 mi) SW of Banning, CA
map1.22021/10/24 23:08:5135.638N117.449W7.02 15 km ( 9 mi) SSW of Searles Valley, CA
map1.32021/10/24 23:08:3438.852N122.763W0.26 5 km ( 3 mi) NW of Cobb, CA
map1.42021/10/24 23:08:1438.852N122.762W0.68 5 km ( 3 mi) NW of Cobb, CA
map0.92021/10/24 22:57:2438.840N122.838W1.93 10 km ( 6 mi) NW of The Geysers, CA
map1.32021/10/24 22:53:0838.841N122.838W1.63 10 km ( 6 mi) NW of The Geysers, CA
map0.92021/10/24 22:46:0532.932N116.232W11.88 25 km (16 mi) SSW of Ocotillo Wells, CA
map0.92021/10/24 22:05:5835.650N117.451W4.98 14 km ( 9 mi) SSW of Searles Valley, CA
map1.02021/10/24 21:29:4038.827N122.795W2.49 6 km ( 4 mi) W of Cobb, CA
map1.32021/10/24 21:25:0238.821N122.804W2.46 6 km ( 4 mi) NW of The Geysers, CA
map1.82021/10/24 21:06:1138.816N122.808W2.67 6 km ( 4 mi) NW of The Geysers, CA
map1.52021/10/24 21:00:1235.629N117.454W9.73 16 km (10 mi) SSW of Searles Valley, CA
map0.42021/10/24 20:52:1438.825N122.799W2.86 6 km ( 4 mi) NW of The Geysers, CA
map1.12021/10/24 20:25:1538.823N122.787W0.53 6 km ( 3 mi) W of Cobb, CA
map2.72021/10/24 19:20:0232.715N117.592W18.01 33 km (21 mi) WSW of La Jolla, CA
map2.12021/10/24 18:57:4140.921N121.814W12.32 14 km ( 8 mi) WNW of Burney, CA
map0.62021/10/24 18:45:5533.444N116.635W7.97 13 km ( 8 mi) SSE of Anza, CA
map1.12021/10/24 18:09:4033.241N116.055W9.17 11 km ( 7 mi) SW of Salton City, CA
map0.92021/10/24 18:03:1938.793N122.806W3.41 5 km ( 3 mi) WNW of The Geysers, CA
map1.32021/10/24 17:24:4533.242N116.054W8.08 11 km ( 7 mi) SW of Salton City, CA
map1.02021/10/24 17:18:3638.831N122.819W5.35 8 km ( 5 mi) NW of The Geysers, CA
map0.72021/10/24 17:17:5438.835N122.813W2.64 8 km ( 5 mi) W of Cobb, CA
map1.82021/10/24 17:16:0433.239N116.056W9.58 11 km ( 7 mi) SW of Salton City, CA
map2.52021/10/24 17:14:3733.240N116.060W9.25 12 km ( 7 mi) SW of Salton City, CA
map1.42021/10/24 16:52:1535.040N117.681W0.64 1 km ( 1 mi) N of Quarry at BORON (Probable quarry explosion)
map1.62021/10/24 16:44:4136.067N117.409W2.81 33 km (21 mi) N of Searles Valley, CA
map1.52021/10/24 16:44:3633.967N117.132W17.17 8 km ( 5 mi) WSW of Calimesa, CA
map1.32021/10/24 16:20:2235.634N117.446W7.75 15 km (10 mi) SSW of Searles Valley, CA
map1.22021/10/24 16:06:1438.517N119.510W3.06 33 km (21 mi) SSW of Smith Valley, NV
map1.82021/10/24 15:59:4933.550N116.665W8.47 1 km ( 1 mi) SE of Anza, CA
map1.62021/10/24 14:27:5834.137N117.439W7.69 5 km ( 3 mi) NNE of Fontana, CA
map1.52021/10/24 14:20:2738.804N122.783W1.48 4 km ( 2 mi) NW of The Geysers, CA
map1.22021/10/24 14:04:2433.674N116.777W16.8 9 km ( 6 mi) SW of Idyllwild, CA
map0.72021/10/24 13:48:0933.184N116.427W12.79 9 km ( 6 mi) SSW of Borrego Springs, CA
map1.22021/10/24 13:17:5235.599N117.483W10.06 18 km (11 mi) E of Ridgecrest, CA
map1.82021/10/24 13:15:5638.136N122.183W6.15 5 km ( 3 mi) ENE of Vallejo, CA
map0.72021/10/24 12:58:0537.607N118.835W2.67 13 km ( 8 mi) ESE of Mammoth Lakes, CA
map0.82021/10/24 12:45:3238.774N122.754W-0.83 0 km ( 0 mi) SE of The Geysers, CA
map1.52021/10/24 12:23:4138.506N119.601W0.58 38 km (24 mi) SW of Smith Valley, NV
map0.52021/10/24 12:17:0633.459N116.615W9.9 12 km ( 7 mi) SSE of Anza, CA
map0.92021/10/24 11:44:0938.169N118.000W2.4 67 km (42 mi) SE of Hawthorne, NV
map0.92021/10/24 11:05:1635.706N117.501W5.31 11 km ( 7 mi) SW of Searles Valley, CA
map1.02021/10/24 09:22:1537.506N118.838W3.06 19 km (12 mi) SE of Mammoth Lakes, CA
map1.12021/10/24 08:58:4635.705N117.510W6.07 12 km ( 7 mi) SW of Searles Valley, CA
map1.32021/10/24 08:55:1037.035N121.465W8.37 10 km ( 6 mi) ENE of Gilroy, CA
map0.92021/10/24 08:42:0233.994N117.177W13.2 7 km ( 4 mi) S of Redlands, CA
map1.62021/10/24 08:38:5634.500N119.712W10.35 9 km ( 5 mi) N of Santa Barbara, CA
map1.52021/10/24 08:03:3238.169N117.880W4.4 58 km (36 mi) W of Tonopah, NV
map1.32021/10/24 07:27:2934.024N118.229W15.26 4 km ( 2 mi) SSE of Los Angeles, CA
map1.22021/10/24 07:27:0834.031N118.233W16.88 3 km ( 2 mi) SSE of Los Angeles, CA
map2.02021/10/24 07:11:1034.016N118.196W16.19 3 km ( 2 mi) SW of East Los Angeles, CA
map1.52021/10/24 07:08:0133.990N117.177W13.93 7 km ( 5 mi) S of Redlands, CA
map1.22021/10/24 07:06:0034.010N118.215W16.44 3 km ( 2 mi) NNE of Huntington Park, CA
MAP3.62021/10/24 07:01:0234.017N118.197W17.15 3 km ( 2 mi) WSW of East Los Angeles, CA
map1.42021/10/24 06:47:1341.069N121.969W6.2 25 km (16 mi) SE of McCloud, CA
map1.72021/10/24 06:41:3833.283N116.244W10.17 13 km ( 8 mi) ENE of Borrego Springs, CA
map1.82021/10/24 06:26:5937.586N122.344W11.89 2 km ( 1 mi) E of Burlingame, CA
map1.02021/10/24 06:16:3136.261N117.894W2.36 10 km ( 6 mi) ESE of Olancha, CA
map1.22021/10/24 06:16:1436.260N117.889W3.71 11 km ( 7 mi) ESE of Olancha, CA
map1.22021/10/24 06:15:0036.261N117.891W1.66 10 km ( 7 mi) ESE of Olancha, CA
map1.32021/10/24 06:06:3737.594N119.009W0.93 5 km ( 3 mi) SSW of Mammoth Lakes, CA
map1.22021/10/24 05:48:4434.039N117.237W17.99 2 km ( 2 mi) ESE of Loma Linda, CA
map0.72021/10/24 05:24:1437.596N118.993W1.94 5 km ( 3 mi) SSW of Mammoth Lakes, CA
map1.22021/10/24 04:30:0738.834N122.810W1.98 8 km ( 5 mi) W of Cobb, CA
map1.52021/10/24 04:19:4933.493N116.783W3.05 9 km ( 6 mi) NE of Aguanga, CA
map1.22021/10/24 04:16:2838.835N122.806W3.07 7 km ( 5 mi) W of Cobb, CA
map1.22021/10/24 04:14:4638.839N122.816W0.59 8 km ( 5 mi) WNW of Cobb, CA
map2.62021/10/24 04:10:5138.835N122.808W2.3 7 km ( 5 mi) W of Cobb, CA
map1.32021/10/24 04:03:1838.544N118.156W7.8 41 km (25 mi) E of Hawthorne, NV
map1.12021/10/24 04:01:5038.959N123.416W6.95 7 km ( 4 mi) SW of Boonville, CA
map1.02021/10/24 03:59:2239.047N123.327W-0.52 5 km ( 3 mi) NE of Boonville, CA
map2.22021/10/24 03:51:4932.606N115.522W3.55 6 km ( 4 mi) ENE of Progreso, B.C., MX
map0.72021/10/24 03:42:0535.718N117.523W6.48 12 km ( 7 mi) WSW of Searles Valley, CA
map0.52021/10/24 03:34:1338.814N122.778W1.55 4 km ( 3 mi) NNW of The Geysers, CA
map1.42021/10/24 03:25:2538.145N118.939W10.9 50 km (31 mi) SSW of Hawthorne, NV
map0.42021/10/24 02:53:2038.781N122.763W-0.34 1 km ( 0 mi) NW of The Geysers, CA
map0.92021/10/24 02:47:2935.902N117.724W5.25 17 km (10 mi) ESE of Little Lake, CA
map1.52021/10/24 02:35:0838.195N117.722W9.0 45 km (28 mi) WNW of Tonopah, NV
map1.12021/10/24 02:33:2438.858N122.834W1.86 10 km ( 6 mi) WNW of Cobb, CA
map0.72021/10/24 02:23:1933.667N116.704W16.84 8 km ( 5 mi) S of Idyllwild, CA
map1.02021/10/24 02:22:3638.580N119.473W3.14 25 km (16 mi) SSW of Smith Valley, NV
map1.32021/10/24 02:05:0138.578N119.457W1.38 25 km (15 mi) SSW of Smith Valley, NV
map1.52021/10/24 01:40:5638.101N119.145W11.46 54 km (33 mi) NNW of Mammoth Lakes, CA
map0.62021/10/24 00:46:4438.160N118.209W4.2 54 km (34 mi) SE of Hawthorne, NV
map1.52021/10/24 00:15:0436.826N121.426W10.15 3 km ( 2 mi) SW of Hollister, CA
map2.32021/10/24 00:08:5636.470N120.604W16.46 37 km (23 mi) SSW of Mendota, CA
MAP3.62021/10/23 23:49:1232.968N115.876W11.15 25 km (16 mi) WSW of Westmorland, CA
map1.02021/10/23 23:43:3838.172N117.881W11.1 58 km (36 mi) WNW of Tonopah, NV
map0.92021/10/23 23:43:1534.049N117.215W8.71 3 km ( 2 mi) WSW of Redlands, CA
map0.92021/10/23 23:24:2335.858N117.663W6.8 24 km (15 mi) ESE of Little Lake, CA
map2.02021/10/23 23:17:1636.875N121.341W9.28 6 km ( 4 mi) ENE of Hollister, CA
map0.72021/10/23 22:49:5338.150N117.846W8.4 55 km (34 mi) W of Tonopah, NV
map0.42021/10/23 22:46:5438.824N122.852W1.84 10 km ( 6 mi) WNW of The Geysers, CA
map0.92021/10/23 22:07:4338.827N122.853W2.18 10 km ( 6 mi) NW of The Geysers, CA
map1.32021/10/23 22:01:2336.034N117.808W1.56 13 km ( 8 mi) E of Coso Junction, CA
map1.52021/10/23 21:59:0637.599N118.828W3.74 14 km ( 9 mi) ESE of Mammoth Lakes, CA
map0.52021/10/23 21:56:5238.826N122.853W2.33 10 km ( 6 mi) WNW of The Geysers, CA
map1.02021/10/23 21:36:3938.825N122.854W2.1 10 km ( 6 mi) WNW of The Geysers, CA
map0.42021/10/23 21:34:2338.828N122.855W2.07 10 km ( 6 mi) WNW of The Geysers, CA
map0.92021/10/23 21:24:0838.811N122.853W4.04 9 km ( 6 mi) WNW of The Geysers, CA
map0.42021/10/23 21:17:2638.824N122.854W1.97 10 km ( 6 mi) WNW of The Geysers, CA
map1.22021/10/23 21:16:4138.823N122.856W2.07 10 km ( 6 mi) WNW of The Geysers, CA
map1.62021/10/23 21:15:5038.825N122.855W1.97 10 km ( 6 mi) WNW of The Geysers, CA
map0.92021/10/23 21:13:1838.825N122.856W2.38 10 km ( 6 mi) WNW of The Geysers, CA
map1.12021/10/23 21:13:0238.825N122.854W1.97 10 km ( 6 mi) WNW of The Geysers, CA
map1.02021/10/23 21:12:1638.826N122.854W2.41 10 km ( 6 mi) WNW of The Geysers, CA
map0.72021/10/23 21:10:0438.825N122.855W2.34 10 km ( 6 mi) WNW of The Geysers, CA
map2.62021/10/23 21:09:2238.824N122.853W2.26 10 km ( 6 mi) WNW of The Geysers, CA
map0.32021/10/23 21:01:4938.825N122.853W2.09 10 km ( 6 mi) WNW of The Geysers, CA
map0.72021/10/23 20:58:5838.576N119.473W6.3 26 km (16 mi) SSW of Smith Valley, NV
map0.92021/10/23 20:58:2738.827N122.857W2.29 10 km ( 6 mi) WNW of The Geysers, CA
map0.42021/10/23 20:56:3738.827N122.852W2.16 10 km ( 6 mi) WNW of The Geysers, CA
map0.92021/10/23 20:55:3538.822N122.861W1.88 10 km ( 6 mi) WNW of The Geysers, CA
map1.62021/10/23 20:54:2338.822N122.856W2.38 10 km ( 6 mi) WNW of The Geysers, CA
map1.32021/10/23 20:54:1238.822N122.857W2.59 10 km ( 6 mi) WNW of The Geysers, CA
map2.82021/10/23 20:53:3938.825N122.854W2.48 10 km ( 6 mi) WNW of The Geysers, CA
map1.22021/10/23 20:46:2338.801N122.815W2.81 6 km ( 4 mi) WNW of The Geysers, CA
map0.52021/10/23 20:25:2435.904N117.707W8.65 18 km (11 mi) E of Little Lake, CA
map0.92021/10/23 20:24:5239.125N120.023W9.1 10 km ( 6 mi) SE of Dollar Point, CA
map0.82021/10/23 20:18:1237.857N122.059W7.46 2 km ( 2 mi) WNW of Alamo, CA
map0.72021/10/23 20:16:3633.573N116.598W15.31 7 km ( 5 mi) ENE of Anza, CA
map0.92021/10/23 20:00:1638.826N122.855W1.96 10 km ( 6 mi) WNW of The Geysers, CA
map2.12021/10/23 19:57:3638.825N122.855W2.34 10 km ( 6 mi) WNW of The Geysers, CA
map1.32021/10/23 19:55:3740.058N120.376W12.2 29 km (18 mi) NNE of Portola, CA
map1.72021/10/23 19:50:1634.052N118.935W9.84 13 km ( 8 mi) WNW of Malibu, CA
map1.22021/10/23 19:20:2735.770N117.588W8.61 17 km (10 mi) W of Searles Valley, CA
map1.42021/10/23 19:20:2638.525N119.530W3.49 33 km (21 mi) SSW of Smith Valley, NV
map0.02021/10/23 19:13:0639.675N119.394W8.7 14 km ( 9 mi) WNW of Fernley, NV
map0.72021/10/23 19:04:2535.719N117.569W9.17 15 km ( 9 mi) NE of Ridgecrest, CA
map1.22021/10/23 19:00:5838.789N122.764W9.97 1 km ( 1 mi) NNW of The Geysers, CA
map0.72021/10/23 18:56:5936.079N117.837W2.41 11 km ( 7 mi) ENE of Coso Junction, CA
map0.72021/10/23 18:55:1438.766N122.707W1.49 4 km ( 3 mi) ESE of The Geysers, CA
map0.62021/10/23 18:39:5633.636N116.683W12.34 9 km ( 6 mi) N of Anza, CA
map1.42021/10/23 18:28:3534.057N117.258W16.93 1 km ( 1 mi) NNE of Loma Linda, CA
map1.32021/10/23 18:09:1237.586N121.686W12.93 13 km ( 8 mi) SE of Livermore, CA
map1.02021/10/23 17:57:4038.574N119.467W6.3 26 km (16 mi) SSW of Smith Valley, NV
map1.92021/10/23 17:38:3638.175N117.773W8.7 49 km (30 mi) WNW of Tonopah, NV
map0.32021/10/23 17:20:0037.493N118.861W2.54 19 km (12 mi) SSE of Mammoth Lakes, CA
map1.82021/10/23 17:02:4434.642N118.571W9.49 12 km ( 8 mi) WSW of Lake Hughes, CA
map1.52021/10/23 16:51:5333.836N118.269W8.58 1 km ( 1 mi) ENE of Carson, CA
map2.22021/10/23 16:43:0138.525N119.536W3.75 33 km (21 mi) SSW of Smith Valley, NV
map1.82021/10/23 15:51:1339.308N118.882W6.0 20 km (13 mi) SSW of Fallon, NV
map0.72021/10/23 15:24:1737.584N118.739W8.37 22 km (14 mi) ESE of Mammoth Lakes, CA
map0.82021/10/23 15:15:1638.811N122.794W2.8 5 km ( 3 mi) NW of The Geysers, CA
map0.62021/10/23 15:10:0737.505N118.819W5.89 20 km (13 mi) SE of Mammoth Lakes, CA
map1.32021/10/23 15:02:3638.807N122.821W2.21 7 km ( 4 mi) WNW of The Geysers, CA
map0.92021/10/23 14:57:5338.195N117.889W8.8 59 km (37 mi) WNW of Tonopah, NV
map1.02021/10/23 14:49:5138.817N122.810W2.13 6 km ( 4 mi) NW of The Geysers, CA
map1.72021/10/23 14:49:0833.382N116.297W11.51 16 km (10 mi) NNE of Borrego Springs, CA
map1.62021/10/23 14:48:4937.845N122.039W8.96 1 km ( 1 mi) SW of Alamo, CA
MAP3.32021/10/23 14:46:2839.564N120.322W-1.95 29 km (18 mi) NNW of Truckee, CA
map1.72021/10/23 14:46:0738.188N117.897W7.9 60 km (37 mi) WNW of Tonopah, NV
map2.02021/10/23 14:45:0433.160N115.957W8.18 15 km (10 mi) S of Salton City, CA
map1.12021/10/23 14:43:3837.585N121.692W0.11 13 km ( 8 mi) SSE of Livermore, CA
map0.42021/10/23 14:42:4938.833N122.818W1.53 8 km ( 5 mi) NW of The Geysers, CA
map1.12021/10/23 14:27:2536.923N121.279W4.78 14 km ( 8 mi) NE of Hollister, CA
map1.22021/10/23 14:25:0338.834N122.817W1.57 8 km ( 5 mi) NW of The Geysers, CA
map2.12021/10/23 14:24:4734.110N117.318W17.06 3 km ( 2 mi) SW of San Bernardino, CA
map0.82021/10/23 14:17:3838.825N122.802W2.23 7 km ( 4 mi) NW of The Geysers, CA
map1.32021/10/23 14:17:0935.021N118.939W16.7 9 km ( 5 mi) N of Grapevine, CA
map0.92021/10/23 14:16:3235.739N117.554W11 14 km ( 9 mi) WSW of Searles Valley, CA
map2.92021/10/23 14:12:5538.197N117.890W8.1 59 km (37 mi) WNW of Tonopah, NV
map0.72021/10/23 14:07:4837.571N118.746W6.68 22 km (14 mi) ESE of Mammoth Lakes, CA
map0.92021/10/23 14:00:0133.700N116.988W11.71 5 km ( 3 mi) SSW of Hemet, CA
map0.72021/10/23 13:34:5736.078N117.839W2.53 11 km ( 7 mi) ENE of Coso Junction, CA
map0.92021/10/23 13:32:0138.190N117.899W7.3 60 km (37 mi) WNW of Tonopah, NV
map0.92021/10/23 13:22:1138.822N122.814W2.19 7 km ( 4 mi) NW of The Geysers, CA
map0.82021/10/23 12:26:2038.146N117.951W11.6 64 km (40 mi) W of Tonopah, NV
map1.92021/10/23 12:18:3639.028N123.324W3.47 4 km ( 3 mi) ENE of Boonville, CA
map1.52021/10/23 12:09:5535.948N117.333W3.86 21 km (13 mi) NNE of Trona, CA
map0.72021/10/23 12:09:0033.242N116.793W9.26 3 km ( 2 mi) W of Lake Henshaw, CA
map1.62021/10/23 11:53:2938.190N117.893W8.1 59 km (37 mi) WNW of Tonopah, NV
map0.92021/10/23 11:51:0738.828N122.868W2.77 11 km ( 7 mi) WNW of The Geysers, CA
map0.52021/10/23 11:47:3438.817N122.819W2.7 7 km ( 4 mi) NW of The Geysers, CA
map1.02021/10/23 11:40:2238.845N122.816W1.16 8 km ( 5 mi) WNW of Cobb, CA
map1.22021/10/23 11:39:0534.213N117.455W10.73 5 km ( 3 mi) W of Devore, CA
map1.92021/10/23 11:37:0634.213N117.454W10.68 5 km ( 3 mi) W of Devore, CA
map1.82021/10/23 11:18:0934.641N118.573W9.61 12 km ( 8 mi) WSW of Lake Hughes, CA
map0.52021/10/23 10:50:0438.765N122.841W5.36 7 km ( 5 mi) W of The Geysers, CA
map1.42021/10/23 10:27:5537.376N117.133W4.3 62 km (38 mi) NNW of Beatty, NV
map1.52021/10/23 10:14:4833.158N115.951W9.3 16 km (10 mi) S of Salton City, CA
map1.42021/10/23 10:14:2139.031N123.323W2.13 4 km ( 3 mi) ENE of Boonville, CA
map0.72021/10/23 10:00:4538.832N122.816W1.63 8 km ( 5 mi) NW of The Geysers, CA
map0.82021/10/23 09:58:2933.998N117.228W10.74 6 km ( 4 mi) SSE of Loma Linda, CA
map2.32021/10/23 09:28:3536.958N121.588W3.98 6 km ( 3 mi) SSW of Gilroy, CA
map2.72021/10/23 09:12:5033.158N115.954W8.77 16 km (10 mi) S of Salton City, CA
map1.52021/10/23 09:04:4036.361N121.492W6.89 16 km (10 mi) WSW of Soledad, CA
map1.02021/10/23 08:57:3536.197N118.102W2.88 13 km ( 8 mi) SW of Olancha, CA
map1.02021/10/23 08:54:2335.649N117.442W6.2 14 km ( 8 mi) SSW of Searles Valley, CA
map0.52021/10/23 08:53:0433.742N116.796W10.3 7 km ( 4 mi) W of Idyllwild, CA
map2.12021/10/23 08:36:4537.993N122.250W9.05 4 km ( 3 mi) SE of Hercules, CA
map1.42021/10/23 08:34:0738.516N119.505W4.24 33 km (20 mi) SSW of Smith Valley, NV
map1.82021/10/23 08:10:4235.742N117.564W8.64 15 km ( 9 mi) W of Searles Valley, CA
map0.82021/10/23 08:08:0738.842N122.826W1.88 9 km ( 6 mi) WNW of Cobb, CA
map0.82021/10/23 07:38:1938.820N122.794W1.05 6 km ( 4 mi) NW of The Geysers, CA
map0.62021/10/23 07:32:3933.242N116.792W9.97 3 km ( 2 mi) W of Lake Henshaw, CA
map0.72021/10/23 07:32:2933.241N116.793W9.71 3 km ( 2 mi) W of Lake Henshaw, CA
map1.12021/10/23 07:31:4633.701N116.810W15.5 9 km ( 6 mi) SE of Valle Vista, CA
map1.52021/10/23 07:19:1833.058N115.581W10.16 4 km ( 3 mi) ENE of Westmorland, CA
map2.82021/10/23 06:34:4437.994N122.251W9.76 4 km ( 3 mi) SE of Hercules, CA
map0.52021/10/23 06:31:3438.838N122.801W2.14 7 km ( 4 mi) WNW of Cobb, CA
map2.32021/10/23 06:22:3332.911N115.523W11.83 8 km ( 5 mi) S of Brawley, CA
map0.62021/10/23 06:20:1239.563N120.322W9.8 29 km (18 mi) NNW of Truckee, CA
map1.92021/10/23 06:00:5038.142N117.890W10.1 58 km (36 mi) W of Tonopah, NV
map2.22021/10/23 05:30:1737.584N118.731W9.17 23 km (14 mi) ESE of Mammoth Lakes, CA
map0.62021/10/23 05:03:3438.154N117.915W11.9 61 km (38 mi) W of Tonopah, NV
map1.82021/10/23 05:02:2838.163N117.877W6.9 58 km (36 mi) W of Tonopah, NV
map0.82021/10/23 04:43:3738.819N122.813W2.78 7 km ( 4 mi) NW of The Geysers, CA
map0.92021/10/23 04:39:0938.548N119.460W3.7 28 km (17 mi) SSW of Smith Valley, NV
map2.92021/10/23 04:27:1732.056N117.454W5.91 50 km (31 mi) SW of Rosarito, B.C., MX
map0.62021/10/23 04:07:5337.494N118.778W8.88 24 km (15 mi) SE of Mammoth Lakes, CA
map0.82021/10/23 03:38:1338.540N119.511W7.2 31 km (19 mi) SSW of Smith Valley, NV
map1.02021/10/23 03:21:1738.498N119.508W4.85 35 km (22 mi) SSW of Smith Valley, NV
map0.92021/10/23 02:40:3538.833N122.820W1.84 8 km ( 5 mi) NW of The Geysers, CA
map0.72021/10/23 02:20:3633.642N116.694W13.24 10 km ( 6 mi) N of Anza, CA
map0.92021/10/23 02:15:5238.833N122.817W1.71 8 km ( 5 mi) NW of The Geysers, CA
map1.12021/10/23 01:52:1838.834N122.802W2.03 7 km ( 4 mi) W of Cobb, CA
map1.82021/10/23 01:43:5837.373N117.131W7.7 61 km (38 mi) NNW of Beatty, NV
map1.42021/10/23 01:37:0738.691N122.428W5.28 13 km ( 8 mi) N of Angwin, CA
map0.92021/10/23 01:32:5838.839N122.800W1.55 7 km ( 4 mi) WNW of Cobb, CA
map0.92021/10/23 01:31:4338.832N122.817W1.8 8 km ( 5 mi) NW of The Geysers, CA
map0.62021/10/23 01:20:1838.513N119.439W1.85 31 km (19 mi) SSW of Smith Valley, NV
map1.42021/10/23 01:10:2038.193N117.862W10.8 57 km (35 mi) WNW of Tonopah, NV
map1.12021/10/23 01:05:0435.894N117.409W3.59 14 km ( 9 mi) N of Searles Valley, CA
map1.22021/10/23 00:47:5035.644N117.467W9.31 15 km ( 9 mi) SSW of Searles Valley, CA
map0.82021/10/23 00:41:2738.836N122.800W1.72 7 km ( 4 mi) WNW of Cobb, CA
map0.82021/10/23 00:40:3235.702N117.469W2.67 9 km ( 6 mi) SW of Searles Valley, CA
map1.42021/10/23 00:36:0638.787N122.763W0.96 1 km ( 1 mi) NNW of The Geysers, CA
map0.62021/10/23 00:34:0635.805N117.624W6.84 20 km (13 mi) WNW of Searles Valley, CA
map1.62021/10/23 00:23:2538.818N122.796W2.28 6 km ( 4 mi) NW of The Geysers, CA
map0.92021/10/23 00:08:5238.832N122.800W2.36 7 km ( 4 mi) W of Cobb, CA
map1.62021/10/23 00:05:3538.756N122.703W1.3 5 km ( 3 mi) ESE of The Geysers, CA
map1.92021/10/22 23:54:5336.452N117.963W8.27 18 km (11 mi) SSE of Lone Pine, CA
map0.62021/10/22 23:53:4038.787N122.761W1.62 1 km ( 1 mi) NNW of The Geysers, CA
map0.82021/10/22 23:53:1938.786N122.762W1.74 1 km ( 1 mi) NNW of The Geysers, CA
map1.52021/10/22 23:52:0038.752N122.459W7.87 11 km ( 7 mi) SE of Hidden Valley Lake, CA
map0.92021/10/22 23:48:3938.839N122.800W1.86 7 km ( 4 mi) WNW of Cobb, CA
map0.92021/10/22 23:30:0533.233N116.600W17.34 6 km ( 4 mi) SSE of Warner Springs, CA
map0.92021/10/22 23:27:5938.831N122.800W0.8 7 km ( 4 mi) W of Cobb, CA
map0.52021/10/22 23:24:3438.831N122.799W1.41 7 km ( 4 mi) W of Cobb, CA
map0.52021/10/22 23:21:2538.834N122.797W1.52 7 km ( 4 mi) WNW of Cobb, CA
map0.82021/10/22 23:08:1238.190N117.883W8.1 59 km (36 mi) WNW of Tonopah, NV
map0.92021/10/22 23:00:0238.830N122.800W1.1 7 km ( 4 mi) W of Cobb, CA
map1.12021/10/22 22:56:4834.123N117.479W5 3 km ( 2 mi) NW of Fontana, CA
map1.02021/10/22 22:56:0338.834N122.803W2.25 7 km ( 4 mi) W of Cobb, CA
map0.92021/10/22 22:53:2038.839N122.799W1.78 7 km ( 4 mi) WNW of Cobb, CA
map1.02021/10/22 22:49:2938.833N122.802W1.49 7 km ( 4 mi) W of Cobb, CA
map1.62021/10/22 22:40:2238.830N122.799W1.34 7 km ( 4 mi) W of Cobb, CA
map0.92021/10/22 22:33:0638.832N122.799W1.87 7 km ( 4 mi) W of Cobb, CA
map1.92021/10/22 22:29:5338.821N122.765W1.89 4 km ( 2 mi) W of Cobb, CA
map1.12021/10/22 22:29:0338.835N122.803W2 7 km ( 4 mi) W of Cobb, CA
map0.82021/10/22 22:28:1338.830N122.804W1.33 7 km ( 4 mi) W of Cobb, CA
map0.62021/10/22 22:18:1238.828N122.810W1.07 7 km ( 5 mi) NW of The Geysers, CA
map1.12021/10/22 21:59:0838.375N118.901W10.9 29 km (18 mi) SW of Hawthorne, NV
map1.62021/10/22 21:54:3238.791N122.750W1.18 2 km ( 1 mi) NNE of The Geysers, CA
map0.92021/10/22 21:54:0438.837N122.801W1.83 7 km ( 4 mi) WNW of Cobb, CA
map1.12021/10/22 21:53:0038.837N122.802W1.32 7 km ( 4 mi) WNW of Cobb, CA
map0.42021/10/22 21:51:1938.808N122.819W3.2 6 km ( 4 mi) WNW of The Geysers, CA
map0.22021/10/22 21:49:5133.657N116.731W17.41 9 km ( 6 mi) S of Idyllwild, CA
map0.82021/10/22 21:42:1738.828N122.801W2.12 7 km ( 4 mi) W of Cobb, CA
map1.02021/10/22 21:40:3638.825N122.797W3.12 6 km ( 4 mi) NNW of The Geysers, CA
map2.02021/10/22 21:40:0140.375N124.454W23.9 28 km (17 mi) SW of Ferndale, CA
map0.92021/10/22 21:39:4938.835N122.801W2.09 7 km ( 4 mi) WNW of Cobb, CA
map0.92021/10/22 21:39:0438.831N122.800W1.2 7 km ( 4 mi) W of Cobb, CA
map0.92021/10/22 21:37:4038.831N122.801W-0.91 7 km ( 4 mi) W of Cobb, CA
map0.82021/10/22 21:36:5538.830N122.799W1.3 7 km ( 4 mi) W of Cobb, CA
map0.42021/10/22 21:35:5438.819N122.800W2.76 6 km ( 4 mi) NW of The Geysers, CA
map0.82021/10/22 21:33:3538.836N122.807W2.11 7 km ( 5 mi) WNW of Cobb, CA
map0.62021/10/22 21:33:1638.828N122.798W1.3 7 km ( 4 mi) W of Cobb, CA
map1.02021/10/22 21:32:4138.805N122.782W1.38 4 km ( 2 mi) NW of The Geysers, CA
map0.92021/10/22 21:31:4238.833N122.798W1.93 7 km ( 4 mi) W of Cobb, CA
map1.02021/10/22 21:31:1838.835N122.795W0.95 6 km ( 4 mi) WNW of Cobb, CA
map1.12021/10/22 21:30:5338.825N122.803W1.2 7 km ( 4 mi) NW of The Geysers, CA
map0.62021/10/22 21:30:4738.833N122.800W1.58 7 km ( 4 mi) W of Cobb, CA
map0.42021/10/22 21:30:4038.839N122.801W1.11 7 km ( 4 mi) WNW of Cobb, CA
map1.12021/10/22 21:30:0138.842N122.827W1.57 9 km ( 6 mi) WNW of Cobb, CA
map1.42021/10/22 21:29:3738.831N122.800W1.66 7 km ( 4 mi) W of Cobb, CA
map0.82021/10/22 21:29:1638.830N122.801W0.63 7 km ( 4 mi) W of Cobb, CA
map1.22021/10/22 21:28:3338.832N122.800W1.55 7 km ( 4 mi) W of Cobb, CA
map2.72021/10/22 21:28:0038.829N122.801W1.85 7 km ( 4 mi) W of Cobb, CA
MAP3.22021/10/22 21:26:2638.828N122.801W1.56 7 km ( 4 mi) W of Cobb, CA
map1.32021/10/22 20:51:5534.014N117.521W6.2 2 km ( 1 mi) N of Mira Loma, CA
map0.32021/10/22 20:45:3739.664N119.432W7.8 17 km (10 mi) WNW of Fernley, NV
map0.92021/10/22 20:45:2637.597N118.829W3.64 14 km ( 9 mi) ESE of Mammoth Lakes, CA
map1.72021/10/22 20:42:1632.873N115.659W3.47 9 km ( 5 mi) WNW of Imperial, CA
map1.52021/10/22 20:22:1638.820N122.786W1.65 5 km ( 3 mi) NNW of The Geysers, CA
map1.02021/10/22 20:18:1838.002N121.840W2.13 3 km ( 2 mi) W of Antioch, CA
MAP3.62021/10/22 19:56:3932.046N117.452W5.95 51 km (32 mi) SW of Rosarito, B.C., MX
map1.02021/10/22 19:52:1837.104N121.490W8.65 11 km ( 7 mi) E of San Martin, CA
map1.02021/10/22 18:26:5336.037N120.599W2.55 22 km (13 mi) NW of Parkfield, CA
map0.92021/10/22 18:25:0038.838N122.821W1.18 9 km ( 5 mi) WNW of Cobb, CA
map0.82021/10/22 18:02:3233.705N116.748W16.07 5 km ( 3 mi) SW of Idyllwild, CA
map1.02021/10/22 17:10:2138.795N122.814W2.91 5 km ( 3 mi) WNW of The Geysers, CA
map1.02021/10/22 16:58:5432.924N116.269W10.56 27 km (17 mi) ENE of Pine Valley, CA
map0.62021/10/22 16:44:5938.778N122.759W1.65 0 km ( 0 mi) W of The Geysers, CA
map0.32021/10/22 16:31:1337.599N118.769W7.15 19 km (12 mi) ESE of Mammoth Lakes, CA
map1.02021/10/22 15:53:2238.833N122.804W1.79 7 km ( 4 mi) W of Cobb, CA
map1.42021/10/22 15:00:3538.847N122.820W1.05 9 km ( 5 mi) WNW of Cobb, CA
map0.82021/10/22 14:37:1437.587N118.734W9.56 22 km (14 mi) ESE of Mammoth Lakes, CA
map1.62021/10/22 14:34:0434.044N117.230W14.3 3 km ( 2 mi) E of Loma Linda, CA
map0.92021/10/22 14:30:4538.823N122.805W2.37 7 km ( 4 mi) NW of The Geysers, CA
map1.82021/10/22 14:25:0038.512N119.528W4.74 34 km (21 mi) SSW of Smith Valley, NV
map0.82021/10/22 14:24:2437.598N118.732W10.61 22 km (14 mi) E of Mammoth Lakes, CA
map0.62021/10/22 14:18:4736.004N117.802W2.15 12 km ( 8 mi) NE of Little Lake, CA
MAP3.52021/10/22 14:14:1937.588N118.733W8.97 22 km (14 mi) ESE of Mammoth Lakes, CA
map1.22021/10/22 13:55:1734.034N117.543W9.99 5 km ( 3 mi) NNW of Mira Loma, CA
map1.62021/10/22 13:30:2736.102N117.909W4.03 7 km ( 5 mi) NNE of Coso Junction, CA
map1.82021/10/22 13:18:2336.175N118.024W4.09 12 km ( 7 mi) S of Olancha, CA
map1.52021/10/22 12:46:0133.255N115.567W4.16 5 km ( 3 mi) WNW of Niland, CA
map1.12021/10/22 12:33:2733.141N117.175W-0.17 3 km ( 2 mi) WNW of Quarry at E-VISTA (Probable quarry explosion)
map1.22021/10/22 12:21:1135.727N117.551W6.87 14 km ( 9 mi) WSW of Searles Valley, CA
map2.02021/10/22 12:11:5733.847N117.494W-0.5 1 km ( 0 mi) SE of Quarry at CORONA (Probable quarry explosion)
map1.52021/10/22 11:51:1534.994N118.186W-0.8 2 km ( 1 mi) SW of Quarry at TPO-DBM (Probable quarry explosion)
map0.92021/10/22 11:42:4538.823N122.798W2.51 6 km ( 4 mi) NW of The Geysers, CA
map0.82021/10/22 11:13:1133.365N116.369W12.96 12 km ( 8 mi) N of Borrego Springs, CA
map0.52021/10/22 10:53:0838.786N122.764W0.92 1 km ( 1 mi) NW of The Geysers, CA
map1.12021/10/22 10:52:4335.050N118.314W-1.02 1 km ( 0 mi) E of Quarry at MOJAVE (Probable quarry explosion)
map1.62021/10/22 09:46:5938.826N122.798W2.15 6 km ( 4 mi) W of Cobb, CA
map0.82021/10/22 09:39:0233.972N116.659W14.72 11 km ( 7 mi) SW of Morongo Valley, CA
map1.72021/10/22 09:17:5234.259N118.721W11.56 2 km ( 1 mi) SE of Simi Valley, CA
map1.82021/10/22 09:08:5435.693N117.525W10.15 14 km ( 8 mi) SW of Searles Valley, CA
map1.72021/10/22 09:03:3038.518N119.402W3.29 30 km (19 mi) S of Smith Valley, NV
map0.72021/10/22 08:53:5138.788N122.761W1.47 1 km ( 1 mi) NNW of The Geysers, CA
map1.62021/10/22 08:48:5138.126N118.949W9.4 53 km (33 mi) SSW of Hawthorne, NV
map0.92021/10/22 08:34:0738.825N122.809W1.38 7 km ( 4 mi) NW of The Geysers, CA
map1.42021/10/22 08:32:5737.598N118.830W3.33 14 km ( 9 mi) ESE of Mammoth Lakes, CA
map0.92021/10/22 08:19:3338.542N119.508W3.49 30 km (19 mi) SSW of Smith Valley, NV
map0.92021/10/22 08:04:4738.834N122.810W2.23 8 km ( 5 mi) W of Cobb, CA
map2.12021/10/22 07:52:5637.992N122.251W9.63 4 km ( 3 mi) ENE of El Sobrante, CA
map1.02021/10/22 07:46:4736.214N117.862W7.85 15 km ( 9 mi) ESE of Olancha, CA
map0.92021/10/22 07:36:1037.995N122.250W8.44 4 km ( 3 mi) SE of Hercules, CA
map1.02021/10/22 07:34:0138.817N122.798W1.37 6 km ( 4 mi) NW of The Geysers, CA
map0.42021/10/22 07:29:4838.827N122.813W0.8 7 km ( 5 mi) NW of The Geysers, CA
map1.62021/10/22 07:19:0038.544N119.401W0.0 27 km (17 mi) S of Smith Valley, NV
map1.92021/10/22 07:12:4538.532N119.403W2.51 29 km (18 mi) S of Smith Valley, NV
map1.82021/10/22 07:10:2638.516N119.402W3.61 30 km (19 mi) S of Smith Valley, NV
map1.12021/10/22 07:09:4838.520N119.408W3.97 30 km (19 mi) S of Smith Valley, NV
map1.12021/10/22 07:02:3438.512N119.403W3.71 31 km (19 mi) S of Smith Valley, NV
map1.22021/10/22 06:59:3838.513N119.402W3.37 31 km (19 mi) S of Smith Valley, NV
map0.82021/10/22 06:58:0037.159N121.529W10.27 11 km ( 7 mi) NE of San Martin, CA
map2.12021/10/22 06:55:2738.530N119.405W2.7 29 km (18 mi) S of Smith Valley, NV
map0.82021/10/22 06:55:2133.344N116.928W18.04 6 km ( 4 mi) WSW of Palomar Observatory, CA
map0.82021/10/22 06:22:2838.808N122.814W0.08 6 km ( 4 mi) NW of The Geysers, CA
map1.82021/10/22 06:10:3739.339N123.236W7.61 9 km ( 5 mi) NNW of Redwood Valley, CA
map1.72021/10/22 05:57:3034.025N117.073W10.56 3 km ( 2 mi) WSW of Yucaipa, CA
map0.82021/10/22 05:51:3939.980N119.475W10.4 42 km (26 mi) NNE of Spanish Springs, NV
map0.62021/10/22 05:47:5238.841N122.822W5.2 9 km ( 5 mi) WNW of Cobb, CA
map1.32021/10/22 05:31:5033.132N115.578W6.64 6 km ( 4 mi) W of Calipatria, CA
map1.32021/10/22 05:23:0032.831N115.469W3.73 9 km ( 5 mi) WNW of Holtville, CA
map1.02021/10/22 05:01:0738.831N122.813W1.77 8 km ( 5 mi) NW of The Geysers, CA
map1.62021/10/22 04:55:3437.227N116.574W0.9 39 km (24 mi) NNE of Beatty, NV
map1.42021/10/22 04:50:5338.894N119.644W2.9 8 km ( 5 mi) E of Gardnerville Ranchos, NV
map1.32021/10/22 04:28:1638.146N117.945W12.2 63 km (39 mi) W of Tonopah, NV
map0.72021/10/22 04:13:4938.105N118.017W16.0 69 km (43 mi) W of Tonopah, NV
map1.22021/10/22 04:06:3433.828N118.246W6.72 3 km ( 2 mi) E of Carson, CA
map1.22021/10/22 04:03:2637.589N118.741W8.97 22 km (13 mi) ESE of Mammoth Lakes, CA
map0.62021/10/22 03:59:3737.604N118.762W6.49 19 km (12 mi) E of Mammoth Lakes, CA
map1.12021/10/22 03:47:5338.175N118.081W3.5 61 km (38 mi) SE of Hawthorne, NV
map0.62021/10/22 03:46:0738.791N122.761W1.83 2 km ( 1 mi) NNW of The Geysers, CA
map0.32021/10/22 03:32:5637.634N118.929W5.1 4 km ( 3 mi) E of Mammoth Lakes, CA
map2.02021/10/22 03:29:5136.670N121.319W5.94 16 km (10 mi) SSE of Ridgemark, CA
map0.82021/10/22 03:25:4434.056N116.843W12.43 15 km ( 9 mi) NNE of Banning, CA
map0.92021/10/22 03:11:5338.824N122.786W-0.84 5 km ( 3 mi) W of Cobb, CA
map0.72021/10/22 02:43:3333.668N116.741W15.02 8 km ( 5 mi) SSW of Idyllwild, CA
map0.92021/10/22 02:39:2735.764N117.535W10.72 12 km ( 7 mi) W of Searles Valley, CA
map1.12021/10/22 02:38:0335.035N118.672W9.57 23 km (14 mi) WSW of Tehachapi, CA
map0.82021/10/22 02:07:5233.817N117.023W15.74 7 km ( 4 mi) WNW of San Jacinto, CA
map1.32021/10/22 02:02:2837.588N118.733W9.81 22 km (14 mi) ESE of Mammoth Lakes, CA
map0.62021/10/22 01:55:2733.675N116.767W13.68 8 km ( 5 mi) SSW of Idyllwild, CA
map0.32021/10/22 01:47:5733.640N116.703W13.85 10 km ( 6 mi) NNW of Anza, CA
map0.72021/10/22 01:47:1335.715N117.556W8.25 15 km ( 9 mi) WSW of Searles Valley, CA
map1.12021/10/22 01:17:2538.764N122.947W6.4 8 km ( 5 mi) SE of Cloverdale, CA
map0.92021/10/22 00:39:1135.679N117.549W10.98 13 km ( 8 mi) ENE of Ridgecrest, CA
map0.92021/10/22 00:22:3433.178N116.121W10.75 4 km ( 2 mi) NNE of Ocotillo Wells, CA
map0.72021/10/22 00:21:2035.776N117.584W8.45 16 km (10 mi) W of Searles Valley, CA
map1.32021/10/22 00:08:4537.893N118.561W4.81 46 km (29 mi) NE of Mammoth Lakes, CA
map1.22021/10/21 23:44:3238.835N122.818W1.73 8 km ( 5 mi) NW of The Geysers, CA
map0.62021/10/21 23:36:0638.842N122.770W1.64 5 km ( 3 mi) WNW of Cobb, CA
map0.62021/10/21 23:34:5235.640N117.453W8.17 15 km ( 9 mi) SSW of Searles Valley, CA
map2.02021/10/21 22:44:5038.535N119.524W4.39 32 km (20 mi) SSW of Smith Valley, NV
map1.12021/10/21 22:00:0138.506N119.531W4.73 35 km (22 mi) SSW of Smith Valley, NV
map1.92021/10/21 21:57:0738.562N119.452W3.78 26 km (16 mi) SSW of Smith Valley, NV
map1.52021/10/21 21:37:2538.459N119.480W5.01 38 km (24 mi) SSW of Smith Valley, NV
map0.62021/10/21 21:30:0033.641N116.708W14.66 10 km ( 6 mi) NNW of Anza, CA
map1.22021/10/21 21:13:5733.343N116.328W12.02 11 km ( 7 mi) NNE of Borrego Springs, CA
map0.72021/10/21 21:07:2339.986N119.469W10.8 43 km (26 mi) NNE of Spanish Springs, NV
map0.02021/10/21 20:54:5833.639N116.703W13.81 10 km ( 6 mi) NNW of Anza, CA
map0.52021/10/21 20:32:3237.588N118.750W9.73 21 km (13 mi) ESE of Mammoth Lakes, CA
map1.42021/10/21 20:04:5032.951N115.528W6.8 3 km ( 2 mi) S of Brawley, CA
map0.92021/10/21 20:02:3133.940N116.713W14.94 7 km ( 5 mi) ENE of Cabazon, CA
map0.72021/10/21 19:56:5238.769N122.710W1.88 4 km ( 3 mi) ESE of The Geysers, CA
map0.22021/10/21 19:41:3738.793N122.758W0.98 2 km ( 1 mi) N of The Geysers, CA
map1.12021/10/21 19:39:3237.585N118.734W8.71 22 km (14 mi) ESE of Mammoth Lakes, CA
map1.32021/10/21 19:36:3436.082N117.841W2.33 11 km ( 7 mi) ENE of Coso Junction, CA
MAP3.42021/10/21 19:30:1737.588N118.734W8.96 22 km (14 mi) ESE of Mammoth Lakes, CA
map0.42021/10/21 18:58:2738.791N122.759W1.88 1 km ( 1 mi) N of The Geysers, CA
map1.22021/10/21 18:36:3038.847N122.818W1.71 9 km ( 5 mi) WNW of Cobb, CA
map0.92021/10/21 18:36:0838.847N122.818W1.3 9 km ( 5 mi) WNW of Cobb, CA
map0.92021/10/21 18:35:1838.844N122.818W0.89 9 km ( 5 mi) WNW of Cobb, CA
map0.92021/10/21 18:08:4533.327N116.306W10.75 10 km ( 6 mi) NE of Borrego Springs, CA
map1.02021/10/21 18:06:2939.940N118.315W4.3 30 km (19 mi) SSE of Lovelock, NV
map0.62021/10/21 18:00:5038.832N122.817W1.81 8 km ( 5 mi) NW of The Geysers, CA
map1.42021/10/21 17:36:2636.511N121.093W6.1 23 km (14 mi) ENE of Soledad, CA
map0.62021/10/21 16:50:1633.401N116.385W7.51 16 km (10 mi) N of Borrego Springs, CA
map0.52021/10/21 16:24:0933.640N116.705W14.16 10 km ( 6 mi) NNW of Anza, CA
map1.22021/10/21 16:10:1438.840N122.823W2.24 9 km ( 5 mi) WNW of Cobb, CA
map1.22021/10/21 16:06:1034.769N118.958W8.09 6 km ( 4 mi) SSW of Frazier Park, CA
map1.32021/10/21 16:02:0536.269N120.838W7.86 27 km (17 mi) ENE of King City, CA
map1.72021/10/21 15:51:4435.957N119.829W8.44 13 km ( 8 mi) ESE of Kettleman City, CA
map2.82021/10/21 15:35:3537.219N119.279W8.26 24 km (15 mi) NE of Auberry, CA
map1.72021/10/21 15:33:2737.458N117.520W5.6 73 km (45 mi) SSW of Tonopah, NV
map0.72021/10/21 15:26:4633.642N116.706W14.68 10 km ( 6 mi) NNW of Anza, CA
map1.42021/10/21 15:24:2233.066N115.000W-0.25 1 km ( 0 mi) N of Quarry at RUN (Probable quarry explosion)
map0.72021/10/21 15:09:1133.364N116.971W7.9 10 km ( 6 mi) E of Pala, CA
map2.02021/10/21 15:07:5436.460N121.054W6.65 23 km (14 mi) NE of Greenfield, CA
map1.42021/10/21 15:02:2739.867N118.392W13.8 36 km (22 mi) SSE of Lovelock, NV